Terminal Aerodrome Forecast
Issued by NWS Raleigh/Durham, NC

Home | Current Version | Previous Version | Text Only | Print | Product List | Glossary On
Versions: 1 2 3 4 5 6 7 8 9 10 11 12 13 14 15 16 17 18 19 20 21 22 23 24 25 26 27 28 29 30
000
FTUS42 KRAH 251739
TAFFAY
TAF
KFAY 251739Z 2518/2618 04006KT P6SM BKN025
     FM252100 05006KT P6SM BKN035
     FM260200 05006KT P6SM BKN020
     FM260800 05006KT P6SM BKN012
     FM261400 08006KT P6SM BKN025=

USA.gov is the U.S. government's official web portal to all federal, state and local government web resources and services.